sensor_id;sensor_type;location;lat;lon;timestamp;P1;durP1;ratioP1;P2;durP2;ratioP2
35150;SDS011;55720;51.972;4.624;2023-01-31T00:01:31;11.75;;;2.15;;
35150;SDS011;55720;51.972;4.624;2023-01-31T00:04:00;23.15;;;2.88;;
35150;SDS011;55720;51.972;4.624;2023-01-31T00:06:28;16.50;;;2.17;;
35150;SDS011;55720;51.972;4.624;2023-01-31T00:08:55;12.48;;;2.22;;
35150;SDS011;55720;51.972;4.624;2023-01-31T00:11:23;13.75;;;1.92;;
35150;SDS011;55720;51.972;4.624;2023-01-31T00:13:50;15.68;;;2.03;;
35150;SDS011;55720;51.972;4.624;2023-01-31T00:16:16;14.13;;;1.70;;
35150;SDS011;55720;51.972;4.624;2023-01-31T00:18:43;21.50;;;2.17;;
35150;SDS011;55720;51.972;4.624;2023-01-31T00:21:10;12.43;;;2.10;;
35150;SDS011;55720;51.972;4.624;2023-01-31T00:23:38;12.52;;;2.05;;
35150;SDS011;55720;51.972;4.624;2023-01-31T00:26:14;10.60;;;1.98;;
35150;SDS011;55720;51.972;4.624;2023-01-31T00:28:42;13.88;;;2.47;;
35150;SDS011;55720;51.972;4.624;2023-01-31T00:31:08;14.23;;;2.17;;
35150;SDS011;55720;51.972;4.624;2023-01-31T00:33:36;15.00;;;2.15;;
35150;SDS011;55720;51.972;4.624;2023-01-31T00:36:06;20.92;;;2.28;;
35150;SDS011;55720;51.972;4.624;2023-01-31T00:38:33;24.25;;;3.08;;
35150;SDS011;55720;51.972;4.624;2023-01-31T00:40:59;17.15;;;2.58;;
35150;SDS011;55720;51.972;4.624;2023-01-31T00:43:25;22.02;;;2.80;;
35150;SDS011;55720;51.972;4.624;2023-01-31T00:45:51;20.38;;;2.65;;
35150;SDS011;55720;51.972;4.624;2023-01-31T00:48:16;15.68;;;2.30;;
35150;SDS011;55720;51.972;4.624;2023-01-31T00:50:41;9.55;;;2.30;;
35150;SDS011;55720;51.972;4.624;2023-01-31T00:53:07;17.63;;;2.67;;
35150;SDS011;55720;51.972;4.624;2023-01-31T00:55:32;14.15;;;2.35;;
35150;SDS011;55720;51.972;4.624;2023-01-31T00:57:58;17.67;;;2.22;;
35150;SDS011;55720;51.972;4.624;2023-01-31T01:00:23;20.05;;;2.60;;
35150;SDS011;55720;51.972;4.624;2023-01-31T01:02:49;19.65;;;1.98;;
35150;SDS011;55720;51.972;4.624;2023-01-31T01:05:17;21.17;;;2.22;;
35150;SDS011;55720;51.972;4.624;2023-01-31T01:07:43;15.73;;;1.92;;
35150;SDS011;55720;51.972;4.624;2023-01-31T01:10:17;20.23;;;2.28;;
35150;SDS011;55720;51.972;4.624;2023-01-31T01:12:51;23.73;;;2.72;;
35150;SDS011;55720;51.972;4.624;2023-01-31T01:15:17;19.58;;;2.85;;
35150;SDS011;55720;51.972;4.624;2023-01-31T01:17:42;16.75;;;2.30;;
35150;SDS011;55720;51.972;4.624;2023-01-31T01:20:08;24.25;;;2.60;;
35150;SDS011;55720;51.972;4.624;2023-01-31T01:22:34;23.35;;;2.30;;
35150;SDS011;55720;51.972;4.624;2023-01-31T01:25:00;22.55;;;2.35;;
35150;SDS011;55720;51.972;4.624;2023-01-31T01:27:26;19.35;;;2.38;;
35150;SDS011;55720;51.972;4.624;2023-01-31T01:29:51;19.95;;;3.03;;
35150;SDS011;55720;51.972;4.624;2023-01-31T01:32:17;26.05;;;2.92;;
35150;SDS011;55720;51.972;4.624;2023-01-31T01:34:42;25.75;;;2.67;;
35150;SDS011;55720;51.972;4.624;2023-01-31T01:37:07;28.33;;;2.88;;
35150;SDS011;55720;51.972;4.624;2023-01-31T01:39:44;19.52;;;3.33;;
35150;SDS011;55720;51.972;4.624;2023-01-31T01:42:19;15.25;;;3.13;;
35150;SDS011;55720;51.972;4.624;2023-01-31T01:44:53;21.98;;;3.58;;
35150;SDS011;55720;51.972;4.624;2023-01-31T01:52:28;16.10;;;3.05;;
35150;SDS011;55720;51.972;4.624;2023-01-31T01:55:00;17.95;;;2.67;;
35150;SDS011;55720;51.972;4.624;2023-01-31T01:57:32;26.02;;;3.70;;
35150;SDS011;55720;51.972;4.624;2023-01-31T02:00:05;17.95;;;2.85;;
35150;SDS011;55720;51.972;4.624;2023-01-31T02:02:37;15.90;;;2.85;;
35150;SDS011;55720;51.972;4.624;2023-01-31T02:05:03;22.00;;;3.03;;
35150;SDS011;55720;51.972;4.624;2023-01-31T02:07:30;18.80;;;3.67;;
35150;SDS011;55720;51.972;4.624;2023-01-31T02:10:04;18.42;;;2.83;;
35150;SDS011;55720;51.972;4.624;2023-01-31T02:12:36;16.42;;;2.95;;
35150;SDS011;55720;51.972;4.624;2023-01-31T02:15:03;15.35;;;3.10;;
35150;SDS011;55720;51.972;4.624;2023-01-31T02:17:29;21.55;;;3.13;;
35150;SDS011;55720;51.972;4.624;2023-01-31T03:51:10;21.85;;;5.03;;
35150;SDS011;55720;51.972;4.624;2023-01-31T03:53:45;22.00;;;4.43;;
35150;SDS011;55720;51.972;4.624;2023-01-31T03:56:17;23.42;;;4.45;;
35150;SDS011;55720;51.972;4.624;2023-01-31T03:58:50;26.80;;;5.25;;
35150;SDS011;55720;51.972;4.624;2023-01-31T04:01:22;23.48;;;5.43;;
35150;SDS011;55720;51.972;4.624;2023-01-31T04:06:30;15.57;;;4.88;;
35150;SDS011;55720;51.972;4.624;2023-01-31T04:08:55;24.58;;;5.00;;
35150;SDS011;55720;51.972;4.624;2023-01-31T04:11:25;39.38;;;5.03;;
35150;SDS011;55720;51.972;4.624;2023-01-31T04:13:52;17.58;;;4.97;;
35150;SDS011;55720;51.972;4.624;2023-01-31T04:16:18;30.02;;;5.13;;
35150;SDS011;55720;51.972;4.624;2023-01-31T04:18:43;21.35;;;5.13;;
35150;SDS011;55720;51.972;4.624;2023-01-31T04:21:08;23.45;;;5.22;;
35150;SDS011;55720;51.972;4.624;2023-01-31T04:23:34;24.23;;;4.68;;
35150;SDS011;55720;51.972;4.624;2023-01-31T04:26:00;20.27;;;4.68;;
35150;SDS011;55720;51.972;4.624;2023-01-31T04:28:25;24.83;;;4.72;;
35150;SDS011;55720;51.972;4.624;2023-01-31T04:30:54;22.80;;;5.65;;
35150;SDS011;55720;51.972;4.624;2023-01-31T04:33:21;23.58;;;4.40;;
35150;SDS011;55720;51.972;4.624;2023-01-31T04:35:47;27.92;;;4.65;;
35150;SDS011;55720;51.972;4.624;2023-01-31T04:38:15;22.48;;;4.40;;
35150;SDS011;55720;51.972;4.624;2023-01-31T04:40:40;28.58;;;5.75;;
35150;SDS011;55720;51.972;4.624;2023-01-31T04:43:06;27.08;;;4.45;;
35150;SDS011;55720;51.972;4.624;2023-01-31T04:45:31;24.77;;;4.85;;
35150;SDS011;55720;51.972;4.624;2023-01-31T04:47:57;23.13;;;4.45;;
35150;SDS011;55720;51.972;4.624;2023-01-31T04:50:22;19.42;;;4.70;;
35150;SDS011;55720;51.972;4.624;2023-01-31T04:52:48;35.00;;;6.55;;
35150;SDS011;55720;51.972;4.624;2023-01-31T04:55:14;27.02;;;4.65;;
35150;SDS011;55720;51.972;4.624;2023-01-31T04:57:40;27.73;;;5.20;;
35150;SDS011;55720;51.972;4.624;2023-01-31T05:00:05;24.42;;;4.68;;
35150;SDS011;55720;51.972;4.624;2023-01-31T05:02:31;24.08;;;4.90;;
35150;SDS011;55720;51.972;4.624;2023-01-31T05:04:57;35.75;;;4.85;;
35150;SDS011;55720;51.972;4.624;2023-01-31T05:07:22;25.42;;;4.68;;
35150;SDS011;55720;51.972;4.624;2023-01-31T05:09:48;27.67;;;4.45;;
35150;SDS011;55720;51.972;4.624;2023-01-31T05:12:13;25.77;;;5.03;;
35150;SDS011;55720;51.972;4.624;2023-01-31T05:14:38;26.45;;;4.82;;
35150;SDS011;55720;51.972;4.624;2023-01-31T05:17:04;29.25;;;4.20;;
35150;SDS011;55720;51.972;4.624;2023-01-31T05:19:29;31.98;;;5.38;;
35150;SDS011;55720;51.972;4.624;2023-01-31T05:21:55;29.83;;;4.85;;
35150;SDS011;55720;51.972;4.624;2023-01-31T05:24:23;24.95;;;4.50;;
35150;SDS011;55720;51.972;4.624;2023-01-31T05:26:54;27.27;;;4.22;;
35150;SDS011;55720;51.972;4.624;2023-01-31T05:29:30;25.63;;;4.13;;
35150;SDS011;55720;51.972;4.624;2023-01-31T05:31:57;30.67;;;4.95;;
35150;SDS011;55720;51.972;4.624;2023-01-31T05:34:24;19.40;;;4.07;;
35150;SDS011;55720;51.972;4.624;2023-01-31T05:36:53;24.50;;;4.05;;
35150;SDS011;55720;51.972;4.624;2023-01-31T05:39:19;30.05;;;4.03;;
35150;SDS011;55720;51.972;4.624;2023-01-31T05:41:44;22.23;;;3.70;;
35150;SDS011;55720;51.972;4.624;2023-01-31T05:44:10;32.22;;;4.43;;
35150;SDS011;55720;51.972;4.624;2023-01-31T05:46:35;23.38;;;4.20;;
35150;SDS011;55720;51.972;4.624;2023-01-31T05:49:02;18.08;;;3.45;;
35150;SDS011;55720;51.972;4.624;2023-01-31T05:51:27;29.55;;;3.63;;
35150;SDS011;55720;51.972;4.624;2023-01-31T05:53:53;24.65;;;3.50;;
35150;SDS011;55720;51.972;4.624;2023-01-31T05:56:19;26.20;;;4.47;;
35150;SDS011;55720;51.972;4.624;2023-01-31T05:58:44;15.73;;;3.42;;
35150;SDS011;55720;51.972;4.624;2023-01-31T06:01:14;20.70;;;3.65;;
35150;SDS011;55720;51.972;4.624;2023-01-31T06:03:48;13.70;;;3.17;;
35150;SDS011;55720;51.972;4.624;2023-01-31T06:06:14;31.73;;;3.65;;
35150;SDS011;55720;51.972;4.624;2023-01-31T06:08:39;26.58;;;4.43;;
35150;SDS011;55720;51.972;4.624;2023-01-31T06:11:06;18.50;;;3.65;;
35150;SDS011;55720;51.972;4.624;2023-01-31T06:13:35;22.02;;;3.95;;
35150;SDS011;55720;51.972;4.624;2023-01-31T06:16:00;18.63;;;4.30;;
35150;SDS011;55720;51.972;4.624;2023-01-31T06:18:26;16.58;;;3.75;;
35150;SDS011;55720;51.972;4.624;2023-01-31T06:20:51;18.08;;;3.65;;
35150;SDS011;55720;51.972;4.624;2023-01-31T06:23:17;17.30;;;3.58;;
35150;SDS011;55720;51.972;4.624;2023-01-31T06:25:43;30.55;;;4.78;;
35150;SDS011;55720;51.972;4.624;2023-01-31T06:28:08;21.70;;;4.00;;
35150;SDS011;55720;51.972;4.624;2023-01-31T06:30:34;20.63;;;4.38;;
35150;SDS011;55720;51.972;4.624;2023-01-31T06:33:00;25.92;;;4.57;;
35150;SDS011;55720;51.972;4.624;2023-01-31T06:35:26;25.48;;;5.03;;
35150;SDS011;55720;51.972;4.624;2023-01-31T06:37:51;19.73;;;3.55;;
35150;SDS011;55720;51.972;4.624;2023-01-31T06:40:17;19.00;;;3.58;;
35150;SDS011;55720;51.972;4.624;2023-01-31T06:42:42;25.73;;;4.90;;
35150;SDS011;55720;51.972;4.624;2023-01-31T06:45:08;25.50;;;4.15;;
35150;SDS011;55720;51.972;4.624;2023-01-31T06:47:33;26.95;;;3.80;;
35150;SDS011;55720;51.972;4.624;2023-01-31T06:49:59;25.08;;;3.50;;
35150;SDS011;55720;51.972;4.624;2023-01-31T06:52:24;27.42;;;3.80;;
35150;SDS011;55720;51.972;4.624;2023-01-31T06:54:50;21.08;;;3.40;;
35150;SDS011;55720;51.972;4.624;2023-01-31T06:57:15;20.25;;;3.78;;
35150;SDS011;55720;51.972;4.624;2023-01-31T06:59:40;22.20;;;3.25;;
35150;SDS011;55720;51.972;4.624;2023-01-31T07:02:09;20.95;;;3.33;;
35150;SDS011;55720;51.972;4.624;2023-01-31T07:04:35;18.35;;;3.33;;
35150;SDS011;55720;51.972;4.624;2023-01-31T07:07:01;25.60;;;3.33;;
35150;SDS011;55720;51.972;4.624;2023-01-31T07:09:26;14.20;;;2.47;;
35150;SDS011;55720;51.972;4.624;2023-01-31T07:11:51;15.38;;;3.30;;
35150;SDS011;55720;51.972;4.624;2023-01-31T07:14:17;16.25;;;2.78;;
35150;SDS011;55720;51.972;4.624;2023-01-31T07:16:42;16.20;;;2.95;;
35150;SDS011;55720;51.972;4.624;2023-01-31T07:19:07;14.35;;;2.67;;
35150;SDS011;55720;51.972;4.624;2023-01-31T07:21:33;20.02;;;2.90;;
35150;SDS011;55720;51.972;4.624;2023-01-31T07:24:00;18.88;;;2.78;;
35150;SDS011;55720;51.972;4.624;2023-01-31T07:26:26;13.30;;;2.53;;
35150;SDS011;55720;51.972;4.624;2023-01-31T07:28:51;22.52;;;3.10;;
35150;SDS011;55720;51.972;4.624;2023-01-31T07:31:17;16.70;;;2.83;;
35150;SDS011;55720;51.972;4.624;2023-01-31T07:33:42;24.33;;;3.83;;
35150;SDS011;55720;51.972;4.624;2023-01-31T07:36:09;19.38;;;2.90;;
35150;SDS011;55720;51.972;4.624;2023-01-31T07:38:37;11.40;;;2.70;;
35150;SDS011;55720;51.972;4.624;2023-01-31T07:41:03;16.55;;;2.83;;
35150;SDS011;55720;51.972;4.624;2023-01-31T07:43:29;13.48;;;2.08;;
35150;SDS011;55720;51.972;4.624;2023-01-31T07:45:55;19.25;;;2.28;;
35150;SDS011;55720;51.972;4.624;2023-01-31T07:48:21;20.73;;;2.28;;
35150;SDS011;55720;51.972;4.624;2023-01-31T07:50:53;15.50;;;2.53;;
35150;SDS011;55720;51.972;4.624;2023-01-31T07:53:25;18.55;;;2.15;;
35150;SDS011;55720;51.972;4.624;2023-01-31T07:55:52;11.38;;;1.88;;
35150;SDS011;55720;51.972;4.624;2023-01-31T07:58:17;20.15;;;1.95;;
35150;SDS011;55720;51.972;4.624;2023-01-31T08:00:43;11.35;;;1.60;;
35150;SDS011;55720;51.972;4.624;2023-01-31T08:03:28;10.15;;;1.73;;
35150;SDS011;55720;51.972;4.624;2023-01-31T08:06:10;11.27;;;2.35;;
35150;SDS011;55720;51.972;4.624;2023-01-31T08:08:37;15.65;;;2.10;;
35150;SDS011;55720;51.972;4.624;2023-01-31T08:11:03;8.20;;;1.67;;
35150;SDS011;55720;51.972;4.624;2023-01-31T08:13:32;13.13;;;1.42;;
35150;SDS011;55720;51.972;4.624;2023-01-31T08:15:58;12.10;;;1.65;;
35150;SDS011;55720;51.972;4.624;2023-01-31T08:18:24;15.55;;;1.58;;
35150;SDS011;55720;51.972;4.624;2023-01-31T08:20:49;13.30;;;1.40;;
35150;SDS011;55720;51.972;4.624;2023-01-31T08:23:15;11.93;;;1.55;;
35150;SDS011;55720;51.972;4.624;2023-01-31T08:25:40;10.10;;;2.20;;
35150;SDS011;55720;51.972;4.624;2023-01-31T08:28:06;14.05;;;1.80;;
35150;SDS011;55720;51.972;4.624;2023-01-31T08:30:32;11.88;;;1.85;;
35150;SDS011;55720;51.972;4.624;2023-01-31T08:32:57;13.43;;;2.10;;
35150;SDS011;55720;51.972;4.624;2023-01-31T08:35:24;12.75;;;2.03;;
35150;SDS011;55720;51.972;4.624;2023-01-31T08:37:50;11.75;;;2.08;;
35150;SDS011;55720;51.972;4.624;2023-01-31T08:40:15;12.75;;;1.98;;
35150;SDS011;55720;51.972;4.624;2023-01-31T08:42:41;9.23;;;2.33;;
35150;SDS011;55720;51.972;4.624;2023-01-31T08:45:06;14.18;;;2.10;;
35150;SDS011;55720;51.972;4.624;2023-01-31T08:47:32;16.83;;;2.15;;
35150;SDS011;55720;51.972;4.624;2023-01-31T08:49:58;20.73;;;2.50;;
35150;SDS011;55720;51.972;4.624;2023-01-31T08:52:23;16.02;;;2.00;;
35150;SDS011;55720;51.972;4.624;2023-01-31T08:54:48;13.57;;;1.80;;
35150;SDS011;55720;51.972;4.624;2023-01-31T08:57:14;18.88;;;2.50;;
35150;SDS011;55720;51.972;4.624;2023-01-31T08:59:39;17.58;;;2.00;;
35150;SDS011;55720;51.972;4.624;2023-01-31T09:02:05;12.75;;;2.00;;
35150;SDS011;55720;51.972;4.624;2023-01-31T09:04:30;13.32;;;2.65;;
35150;SDS011;55720;51.972;4.624;2023-01-31T09:06:55;12.90;;;2.28;;
35150;SDS011;55720;51.972;4.624;2023-01-31T09:09:21;16.25;;;2.25;;
35150;SDS011;55720;51.972;4.624;2023-01-31T09:11:50;15.32;;;3.33;;
35150;SDS011;55720;51.972;4.624;2023-01-31T09:14:15;18.15;;;2.22;;
35150;SDS011;55720;51.972;4.624;2023-01-31T09:16:40;11.15;;;2.53;;
35150;SDS011;55720;51.972;4.624;2023-01-31T09:19:06;14.48;;;2.55;;
35150;SDS011;55720;51.972;4.624;2023-01-31T09:21:31;8.05;;;2.20;;
35150;SDS011;55720;51.972;4.624;2023-01-31T09:23:58;17.40;;;2.60;;
35150;SDS011;55720;51.972;4.624;2023-01-31T09:26:26;17.27;;;2.65;;
35150;SDS011;55720;51.972;4.624;2023-01-31T09:28:51;13.32;;;2.20;;
35150;SDS011;55720;51.972;4.624;2023-01-31T09:31:17;13.35;;;2.90;;
35150;SDS011;55720;51.972;4.624;2023-01-31T09:33:44;18.48;;;2.33;;
35150;SDS011;55720;51.972;4.624;2023-01-31T09:36:11;16.08;;;2.45;;
35150;SDS011;55720;51.972;4.624;2023-01-31T09:38:38;10.50;;;2.25;;
35150;SDS011;55720;51.972;4.624;2023-01-31T09:41:06;18.20;;;2.63;;
35150;SDS011;55720;51.972;4.624;2023-01-31T09:43:49;19.33;;;2.95;;
35150;SDS011;55720;51.972;4.624;2023-01-31T09:46:18;18.25;;;3.17;;
35150;SDS011;55720;51.972;4.624;2023-01-31T09:48:50;14.98;;;2.47;;
35150;SDS011;55720;51.972;4.624;2023-01-31T09:51:19;14.93;;;2.00;;
35150;SDS011;55720;51.972;4.624;2023-01-31T09:53:44;14.55;;;2.40;;
35150;SDS011;55720;51.972;4.624;2023-01-31T10:01:55;15.45;;;2.40;;
35150;SDS011;55720;51.972;4.624;2023-01-31T10:07:23;16.38;;;2.95;;
35150;SDS011;55720;51.972;4.624;2023-01-31T10:10:10;17.70;;;2.58;;
35150;SDS011;55720;51.972;4.624;2023-01-31T10:13:08;10.43;;;2.13;;
35150;SDS011;55720;51.972;4.624;2023-01-31T10:15:51;21.65;;;2.35;;
35150;SDS011;55720;51.972;4.624;2023-01-31T10:18:36;16.30;;;3.13;;
35150;SDS011;55720;51.972;4.624;2023-01-31T10:21:21;21.02;;;2.75;;
35150;SDS011;55720;51.972;4.624;2023-01-31T10:23:59;18.42;;;2.75;;
35150;SDS011;55720;51.972;4.624;2023-01-31T10:26:30;12.13;;;2.28;;
35150;SDS011;55720;51.972;4.624;2023-01-31T10:29:03;20.92;;;2.72;;
35150;SDS011;55720;51.972;4.624;2023-01-31T10:31:42;17.63;;;3.35;;
35150;SDS011;55720;51.972;4.624;2023-01-31T10:34:14;9.30;;;2.50;;
35150;SDS011;55720;51.972;4.624;2023-01-31T10:37:00;23.30;;;3.53;;
35150;SDS011;55720;51.972;4.624;2023-01-31T10:42:17;10.80;;;2.00;;
35150;SDS011;55720;51.972;4.624;2023-01-31T10:44:52;15.38;;;2.47;;
35150;SDS011;55720;51.972;4.624;2023-01-31T10:47:51;23.70;;;2.78;;
35150;SDS011;55720;51.972;4.624;2023-01-31T10:58:01;19.40;;;2.55;;
35150;SDS011;55720;51.972;4.624;2023-01-31T11:00:28;13.95;;;2.03;;
35150;SDS011;55720;51.972;4.624;2023-01-31T11:02:56;21.92;;;3.63;;
35150;SDS011;55720;51.972;4.624;2023-01-31T11:05:23;18.70;;;2.60;;
35150;SDS011;55720;51.972;4.624;2023-01-31T11:07:51;24.40;;;2.75;;
35150;SDS011;55720;51.972;4.624;2023-01-31T11:10:27;9.73;;;2.15;;
35150;SDS011;55720;51.972;4.624;2023-01-31T11:12:58;15.52;;;2.97;;
35150;SDS011;55720;51.972;4.624;2023-01-31T11:15:34;16.63;;;2.03;;
35150;SDS011;55720;51.972;4.624;2023-01-31T11:18:03;8.30;;;2.03;;
35150;SDS011;55720;51.972;4.624;2023-01-31T11:20:36;13.35;;;2.10;;
35150;SDS011;55720;51.972;4.624;2023-01-31T11:23:09;11.00;;;2.38;;
35150;SDS011;55720;51.972;4.624;2023-01-31T11:25:39;16.80;;;1.92;;
35150;SDS011;55720;51.972;4.624;2023-01-31T11:28:17;17.70;;;4.05;;
35150;SDS011;55720;51.972;4.624;2023-01-31T11:30:50;12.13;;;1.95;;
35150;SDS011;55720;51.972;4.624;2023-01-31T11:36:06;12.88;;;2.20;;
35150;SDS011;55720;51.972;4.624;2023-01-31T11:38:40;12.75;;;1.80;;
35150;SDS011;55720;51.972;4.624;2023-01-31T11:44:04;12.25;;;2.13;;
35150;SDS011;55720;51.972;4.624;2023-01-31T11:46:42;13.55;;;2.90;;
35150;SDS011;55720;51.972;4.624;2023-01-31T11:52:16;19.55;;;3.10;;
35150;SDS011;55720;51.972;4.624;2023-01-31T11:55:05;17.58;;;2.97;;
35150;SDS011;55720;51.972;4.624;2023-01-31T11:57:34;15.75;;;3.78;;
35150;SDS011;55720;51.972;4.624;2023-01-31T12:00:02;17.73;;;2.45;;
35150;SDS011;55720;51.972;4.624;2023-01-31T12:05:22;15.85;;;2.22;;
35150;SDS011;55720;51.972;4.624;2023-01-31T12:07:58;16.58;;;2.50;;
35150;SDS011;55720;51.972;4.624;2023-01-31T12:10:40;13.32;;;2.40;;
35150;SDS011;55720;51.972;4.624;2023-01-31T12:13:16;13.65;;;2.03;;
35150;SDS011;55720;51.972;4.624;2023-01-31T12:16:04;20.02;;;2.42;;
35150;SDS011;55720;51.972;4.624;2023-01-31T12:18:40;18.25;;;2.38;;
35150;SDS011;55720;51.972;4.624;2023-01-31T12:21:17;17.58;;;2.60;;
35150;SDS011;55720;51.972;4.624;2023-01-31T12:26:46;23.65;;;2.63;;
35150;SDS011;55720;51.972;4.624;2023-01-31T12:32:17;12.68;;;2.20;;
35150;SDS011;55720;51.972;4.624;2023-01-31T12:41:10;15.52;;;2.92;;
35150;SDS011;55720;51.972;4.624;2023-01-31T12:46:26;14.65;;;2.30;;
35150;SDS011;55720;51.972;4.624;2023-01-31T13:06:29;15.60;;;3.25;;
35150;SDS011;55720;51.972;4.624;2023-01-31T13:09:07;20.98;;;3.00;;
35150;SDS011;55720;51.972;4.624;2023-01-31T13:12:24;20.40;;;2.40;;
35150;SDS011;55720;51.972;4.624;2023-01-31T13:17:28;18.77;;;2.70;;
35150;SDS011;55720;51.972;4.624;2023-01-31T13:19:57;16.65;;;2.20;;
35150;SDS011;55720;51.972;4.624;2023-01-31T13:22:48;15.02;;;2.35;;
35150;SDS011;55720;51.972;4.624;2023-01-31T13:25:20;19.67;;;2.97;;
35150;SDS011;55720;51.972;4.624;2023-01-31T13:27:56;16.00;;;2.28;;
35150;SDS011;55720;51.972;4.624;2023-01-31T13:30:41;17.40;;;2.47;;
35150;SDS011;55720;51.972;4.624;2023-01-31T13:33:17;7.80;;;2.55;;
35150;SDS011;55720;51.972;4.624;2023-01-31T13:36:34;14.88;;;3.03;;
35150;SDS011;55720;51.972;4.624;2023-01-31T13:38:44;12.77;;;2.25;;
35150;SDS011;55720;51.972;4.624;2023-01-31T13:41:16;14.70;;;2.58;;
35150;SDS011;55720;51.972;4.624;2023-01-31T13:43:47;10.68;;;2.53;;
35150;SDS011;55720;51.972;4.624;2023-01-31T13:46:12;14.23;;;1.95;;
35150;SDS011;55720;51.972;4.624;2023-01-31T13:48:46;16.85;;;2.30;;
35150;SDS011;55720;51.972;4.624;2023-01-31T13:51:31;15.35;;;2.78;;
35150;SDS011;55720;51.972;4.624;2023-01-31T13:56:53;16.52;;;3.58;;
35150;SDS011;55720;51.972;4.624;2023-01-31T13:59:23;16.58;;;2.30;;
35150;SDS011;55720;51.972;4.624;2023-01-31T14:01:51;11.32;;;3.05;;
35150;SDS011;55720;51.972;4.624;2023-01-31T14:04:20;11.75;;;2.10;;
35150;SDS011;55720;51.972;4.624;2023-01-31T14:09:42;13.07;;;2.45;;
35150;SDS011;55720;51.972;4.624;2023-01-31T14:17:13;11.30;;;2.05;;
35150;SDS011;55720;51.972;4.624;2023-01-31T14:22:42;10.82;;;2.03;;
35150;SDS011;55720;51.972;4.624;2023-01-31T14:25:39;21.00;;;2.80;;
35150;SDS011;55720;51.972;4.624;2023-01-31T14:28:08;10.63;;;2.08;;
35150;SDS011;55720;51.972;4.624;2023-01-31T14:30:41;7.97;;;1.70;;
35150;SDS011;55720;51.972;4.624;2023-01-31T14:35:49;7.78;;;2.10;;
35150;SDS011;55720;51.972;4.624;2023-01-31T14:57:57;12.27;;;2.45;;
35150;SDS011;55720;51.972;4.624;2023-01-31T15:00:25;10.27;;;2.00;;
35150;SDS011;55720;51.972;4.624;2023-01-31T15:05:47;10.38;;;2.20;;
35150;SDS011;55720;51.972;4.624;2023-01-31T15:19:11;8.05;;;2.15;;
35150;SDS011;55720;51.972;4.624;2023-01-31T15:21:46;14.65;;;2.20;;
35150;SDS011;55720;51.972;4.624;2023-01-31T15:24:24;13.85;;;2.08;;
35150;SDS011;55720;51.972;4.624;2023-01-31T15:27:03;12.43;;;3.05;;
35150;SDS011;55720;51.972;4.624;2023-01-31T15:29:47;11.73;;;2.00;;
35150;SDS011;55720;51.972;4.624;2023-01-31T15:32:21;13.15;;;2.38;;
35150;SDS011;55720;51.972;4.624;2023-01-31T15:34:55;18.33;;;2.00;;
35150;SDS011;55720;51.972;4.624;2023-01-31T15:37:37;11.02;;;2.20;;
35150;SDS011;55720;51.972;4.624;2023-01-31T15:42:42;15.75;;;2.85;;
35150;SDS011;55720;51.972;4.624;2023-01-31T15:45:23;13.50;;;1.88;;
35150;SDS011;55720;51.972;4.624;2023-01-31T15:50:29;16.50;;;2.30;;
35150;SDS011;55720;51.972;4.624;2023-01-31T15:53:00;12.30;;;2.35;;
35150;SDS011;55720;51.972;4.624;2023-01-31T15:55:30;17.23;;;2.15;;
35150;SDS011;55720;51.972;4.624;2023-01-31T15:57:58;13.93;;;2.10;;
35150;SDS011;55720;51.972;4.624;2023-01-31T16:00:30;10.45;;;1.80;;
35150;SDS011;55720;51.972;4.624;2023-01-31T16:03:00;11.57;;;2.30;;
35150;SDS011;55720;51.972;4.624;2023-01-31T16:05:28;8.88;;;1.92;;
35150;SDS011;55720;51.972;4.624;2023-01-31T16:07:56;18.08;;;1.88;;
35150;SDS011;55720;51.972;4.624;2023-01-31T16:10:24;12.90;;;2.50;;
35150;SDS011;55720;51.972;4.624;2023-01-31T16:12:51;17.40;;;2.80;;
35150;SDS011;55720;51.972;4.624;2023-01-31T16:15:23;18.45;;;2.45;;
35150;SDS011;55720;51.972;4.624;2023-01-31T16:17:50;10.85;;;2.40;;
35150;SDS011;55720;51.972;4.624;2023-01-31T16:23:04;17.65;;;2.80;;
35150;SDS011;55720;51.972;4.624;2023-01-31T16:25:48;18.50;;;2.60;;
35150;SDS011;55720;51.972;4.624;2023-01-31T16:28:15;18.15;;;3.13;;
35150;SDS011;55720;51.972;4.624;2023-01-31T16:30:41;17.15;;;2.72;;
35150;SDS011;55720;51.972;4.624;2023-01-31T16:33:14;14.75;;;2.40;;
35150;SDS011;55720;51.972;4.624;2023-01-31T16:35:41;19.52;;;2.92;;
35150;SDS011;55720;51.972;4.624;2023-01-31T16:38:17;18.00;;;2.53;;
35150;SDS011;55720;51.972;4.624;2023-01-31T16:40:49;15.82;;;2.33;;
35150;SDS011;55720;51.972;4.624;2023-01-31T16:45:54;14.68;;;2.47;;
35150;SDS011;55720;51.972;4.624;2023-01-31T16:48:33;16.70;;;3.03;;
35150;SDS011;55720;51.972;4.624;2023-01-31T16:59:46;20.85;;;2.38;;
35150;SDS011;55720;51.972;4.624;2023-01-31T17:02:21;20.55;;;2.20;;
35150;SDS011;55720;51.972;4.624;2023-01-31T17:04:53;14.30;;;1.75;;
35150;SDS011;55720;51.972;4.624;2023-01-31T17:07:39;16.00;;;2.40;;
35150;SDS011;55720;51.972;4.624;2023-01-31T17:10:08;25.90;;;2.90;;
35150;SDS011;55720;51.972;4.624;2023-01-31T17:12:41;21.58;;;2.58;;
35150;SDS011;55720;51.972;4.624;2023-01-31T17:15:17;17.50;;;2.50;;
35150;SDS011;55720;51.972;4.624;2023-01-31T17:17:44;22.00;;;2.80;;
35150;SDS011;55720;51.972;4.624;2023-01-31T17:20:14;21.05;;;3.50;;
35150;SDS011;55720;51.972;4.624;2023-01-31T17:22:40;22.17;;;3.17;;
35150;SDS011;55720;51.972;4.624;2023-01-31T17:25:13;18.60;;;2.85;;
35150;SDS011;55720;51.972;4.624;2023-01-31T17:27:39;18.88;;;2.50;;
35150;SDS011;55720;51.972;4.624;2023-01-31T17:30:04;14.98;;;2.67;;
35150;SDS011;55720;51.972;4.624;2023-01-31T17:32:30;19.23;;;3.22;;
35150;SDS011;55720;51.972;4.624;2023-01-31T17:34:55;19.55;;;3.22;;
35150;SDS011;55720;51.972;4.624;2023-01-31T17:37:21;18.63;;;3.13;;
35150;SDS011;55720;51.972;4.624;2023-01-31T17:39:46;22.80;;;3.30;;
35150;SDS011;55720;51.972;4.624;2023-01-31T17:42:14;17.52;;;2.78;;
35150;SDS011;55720;51.972;4.624;2023-01-31T17:44:42;21.55;;;3.60;;
35150;SDS011;55720;51.972;4.624;2023-01-31T17:47:07;22.40;;;3.05;;
35150;SDS011;55720;51.972;4.624;2023-01-31T17:49:32;16.73;;;2.88;;
35150;SDS011;55720;51.972;4.624;2023-01-31T17:51:59;21.58;;;3.28;;
35150;SDS011;55720;51.972;4.624;2023-01-31T17:54:24;17.67;;;3.90;;
35150;SDS011;55720;51.972;4.624;2023-01-31T17:56:50;19.88;;;3.53;;
35150;SDS011;55720;51.972;4.624;2023-01-31T17:59:15;19.98;;;3.45;;
35150;SDS011;55720;51.972;4.624;2023-01-31T18:01:40;21.33;;;4.30;;
35150;SDS011;55720;51.972;4.624;2023-01-31T18:04:06;17.42;;;3.58;;
35150;SDS011;55720;51.972;4.624;2023-01-31T18:06:31;18.45;;;3.13;;
35150;SDS011;55720;51.972;4.624;2023-01-31T18:08:59;18.33;;;3.42;;
35150;SDS011;55720;51.972;4.624;2023-01-31T18:11:25;23.45;;;3.42;;
35150;SDS011;55720;51.972;4.624;2023-01-31T18:13:51;16.50;;;2.85;;
35150;SDS011;55720;51.972;4.624;2023-01-31T18:16:17;16.80;;;2.78;;
35150;SDS011;55720;51.972;4.624;2023-01-31T18:18:45;16.73;;;3.03;;
35150;SDS011;55720;51.972;4.624;2023-01-31T18:21:12;22.33;;;3.33;;
35150;SDS011;55720;51.972;4.624;2023-01-31T18:23:38;22.13;;;3.83;;
35150;SDS011;55720;51.972;4.624;2023-01-31T18:26:04;18.27;;;2.35;;
35150;SDS011;55720;51.972;4.624;2023-01-31T18:28:31;20.65;;;2.60;;
35150;SDS011;55720;51.972;4.624;2023-01-31T18:31:06;19.55;;;3.10;;
35150;SDS011;55720;51.972;4.624;2023-01-31T18:33:38;19.65;;;3.22;;
35150;SDS011;55720;51.972;4.624;2023-01-31T18:36:04;14.45;;;2.72;;
35150;SDS011;55720;51.972;4.624;2023-01-31T18:38:30;17.88;;;2.75;;
35150;SDS011;55720;51.972;4.624;2023-01-31T18:40:56;17.33;;;2.78;;
35150;SDS011;55720;51.972;4.624;2023-01-31T18:43:24;12.30;;;2.47;;